Terminal Aerodrome Forecast
Issued by NWS Twin Cities, MN

Home | Current Version | Previous Version | Graphics & Text | Print | Product List | Glossary On
Versions: 1 2 3 4 5 6 7 8 9 10 11 12 13
000
FTUS43 KMPX 212338
TAFSTC
TAF
KSTC 212338Z 2200/2224 31005KT P6SM BKN020
     FM220030 27004KT P6SM VCSH BKN020 OVC090
     FM220130 32007KT P6SM SKC
     FM221600 31014G23KT P6SM SKC=

USA.gov is the U.S. government's official web portal to all federal, state and local government web resources and services.